Berlin Dahlem, Germany

4:34 PM CEST on August 29, 2014 (GMT +0200)
Tiergarten | Change Station
CLOSE
Current Station
Personal Weather Station
Location: Berlin, BERLIN
Elevation: 121 ft
Nearby Weather Stations

Elev 121 ft 52.52 °N, 13.32 °E | Updated 14 minutes ago

Mostly Cloudy
Mostly Cloudy
70.9 °F
Feels Like 73 °F
N
-
Wind Variable Wind from North

Today
High -- | Low -- °F
--% Chance of Precip.
Yesterday
High -- | Low -- °F
Precip. -- in
6:12 AM 8:02 PM
Waxing Crescent, 14% visible
Pressure 29.95 in
Visibility 6.2 miles
Clouds Mostly Cloudy 2300 ft
Mostly Cloudy 12000 ft
Heat Index 73 °F
Dew Point 60 °F
Humidity 73%
Rainfall -999.00 in
Snow Depth Not available.
UV 2 out of 12
Pollen Not available.
Air Quality Not available.
Flu Activity Not available.
METAR EDDT 291420Z 25009KT 9999 BKN023 BKN120 21/14 Q1014 NOSIG

More Conditions Fewer Conditions

Pressure 29.95 in
Visibility 6.2 miles
Clouds Mostly Cloudy 2300 ft
Mostly Cloudy 12000 ft
Heat Index 73 °F
Dew Point 60 °F
Humidity 73%
Rainfall -999.00 in
Snow Depth Not available.
UV 2 out of 12
Pollen Not available.
Air Quality Not available.
Flu Activity Not available.
METAR EDDT 291420Z 25009KT 9999 BKN023 BKN120 21/14 Q1014 NOSIG

More Conditions Fewer Conditions

10-Day Weather Forecast

Almanac

Astronomy

Aug. 29, 2014 Rise Set
Actual Time 6:12 AM CEST 8:02 PM CEST
Civil Twilight 5:36 AM CEST 8:38 PM CEST
Nautical Twilight 4:51 AM CEST 9:22 PM CEST
Astronomical Twilight 4:00 AM CEST 10:13 PM CEST
Moon 10:18 AM CEST 9:14 PM CEST
Length of Visible Light 15h 01m
Length of Day
13h 49m
Tomorrow will be 3m 57s shorter.
Waxing Crescent, 14% of the Moon is Illuminated
Today
Waxing Crescent
Sep 2
First Quarter
Sep 8
Full
Sep 15
Last Quarter
Sep 24
New

Yesterday's Extremes

Country Highs Country Lows

Community

WunderPhotos

Upload Photos

1,748,255 photos uploaded!

Nearby

Snow Depth

Not available.

Earthquake Activity

City Distance Mag. Time & Date
No recent earthquake activity has been reported nearby.
Minimum magnitude displayed is 2.5.

Coastal Water Temperatures

Place Temperature
No Stations Reporting

Nearby Weather Stations